KMFI/MFI METAR and TAF weather

Enter ICAO airport designator
Station Type Date Time Source
KMFI METAR 2019/05/23 18:54 UTC NOAA

KMFI 231854Z AUTO 32014G21KT 10SM OVC037 16/08 A2998 RMK AO2 SLP154 T01610083


Station Type Date Time Source
KMFI Decoded METAR 2019/05/23 18:54 UTC NOAA

MARSHFIELD MUNICIPAL AIRPORT, WI, United States (KMFI) 44-38N 90-11W 379M
May 23, 2019 - 02:54 PM EDT / 2019.05.23 1854 UTC
Wind: from the NW (320 degrees) at 16 MPH (14 KT) gusting to 24 MPH (21 KT):0
Visibility: 10 mile(s):0
Sky conditions: overcast
Temperature: 61.0 F (16.1 C)
Dew Point: 46.9 F (8.3 C)
Relative Humidity: 59%
Pressure (altimeter): 29.98 in. Hg (1015 hPa)
ob: KMFI 231854Z AUTO 32014G21KT 10SM OVC037 16/08 A2998 RMK AO2 SLP154 T01610083
cycle: 19

Station Type Date Time Source
KMFI TAF UTC NOAA

Error!

Example: see airport list